Terminal Aerodrome Forecast
Issued by NWS

Home | Current Version | Previous Version | Text Only | Print | Product List | Glossary On
Versions: 1 2 3 4 5 6 7 8 9 10 11 12 13 14
544
FTUS42 TJSJ 021142
TAFNCM
TAF
TNCM 021142Z 0212/0312 10007KT P6SM VCTS SCT018CB SCT030 BKN090
      TEMPO 0212/0214 VRB10KT TSRA FEW013CB BKN018 BKN045
     FM021430 12012KT P6SM -RA SCT018 SCT022 OVC090
     FM022330 10008KT P6SM VCSH FEW018 FEW022 SCT040=

USA.gov is the U.S. government's official web portal to all federal, state and local government web resources and services.